sensor_id;sensor_type;location;lat;lon;timestamp;P1;durP1;ratioP1;P2;durP2;ratioP2
55320;SDS011;41184;44.272;19.890;2022-07-29T00:00:44;7.03;;;6.32;;
55320;SDS011;41184;44.272;19.890;2022-07-29T00:03:11;7.75;;;6.80;;
55320;SDS011;41184;44.272;19.890;2022-07-29T00:05:40;8.45;;;6.40;;
55320;SDS011;41184;44.272;19.890;2022-07-29T00:08:07;8.82;;;6.97;;
55320;SDS011;41184;44.272;19.890;2022-07-29T00:10:33;8.27;;;6.18;;
55320;SDS011;41184;44.272;19.890;2022-07-29T00:13:02;8.55;;;7.20;;
55320;SDS011;41184;44.272;19.890;2022-07-29T00:15:28;7.13;;;6.43;;
55320;SDS011;41184;44.272;19.890;2022-07-29T00:17:54;8.45;;;6.45;;
55320;SDS011;41184;44.272;19.890;2022-07-29T00:20:20;7.63;;;6.40;;
55320;SDS011;41184;44.272;19.890;2022-07-29T00:22:46;8.15;;;6.93;;
55320;SDS011;41184;44.272;19.890;2022-07-29T00:25:12;13.48;;;6.97;;
55320;SDS011;41184;44.272;19.890;2022-07-29T00:27:38;6.35;;;5.75;;
55320;SDS011;41184;44.272;19.890;2022-07-29T00:30:05;8.65;;;6.45;;
55320;SDS011;41184;44.272;19.890;2022-07-29T00:32:32;9.18;;;6.13;;
55320;SDS011;41184;44.272;19.890;2022-07-29T00:34:58;7.40;;;6.07;;
55320;SDS011;41184;44.272;19.890;2022-07-29T00:37:44;10.68;;;6.32;;
55320;SDS011;41184;44.272;19.890;2022-07-29T00:40:10;8.82;;;6.47;;
55320;SDS011;41184;44.272;19.890;2022-07-29T00:42:47;8.63;;;6.47;;
55320;SDS011;41184;44.272;19.890;2022-07-29T00:45:13;10.80;;;6.75;;
55320;SDS011;41184;44.272;19.890;2022-07-29T00:47:39;8.90;;;6.57;;
55320;SDS011;41184;44.272;19.890;2022-07-29T00:50:06;9.70;;;6.63;;
55320;SDS011;41184;44.272;19.890;2022-07-29T00:52:33;8.10;;;6.05;;
55320;SDS011;41184;44.272;19.890;2022-07-29T00:55:02;7.72;;;6.32;;
55320;SDS011;41184;44.272;19.890;2022-07-29T00:57:28;7.10;;;6.40;;
55320;SDS011;41184;44.272;19.890;2022-07-29T00:59:55;7.90;;;6.72;;
55320;SDS011;41184;44.272;19.890;2022-07-29T01:02:21;7.60;;;6.88;;
55320;SDS011;41184;44.272;19.890;2022-07-29T01:04:50;11.35;;;6.15;;
55320;SDS011;41184;44.272;19.890;2022-07-29T01:07:17;7.00;;;6.30;;
55320;SDS011;41184;44.272;19.890;2022-07-29T01:09:43;9.60;;;6.88;;
55320;SDS011;41184;44.272;19.890;2022-07-29T01:12:11;8.07;;;6.40;;
55320;SDS011;41184;44.272;19.890;2022-07-29T01:14:38;14.90;;;6.78;;
55320;SDS011;41184;44.272;19.890;2022-07-29T01:19:56;8.30;;;6.75;;
55320;SDS011;41184;44.272;19.890;2022-07-29T01:22:26;11.98;;;6.90;;
55320;SDS011;41184;44.272;19.890;2022-07-29T01:27:58;7.45;;;6.55;;
55320;SDS011;41184;44.272;19.890;2022-07-29T01:30:26;10.38;;;6.90;;
55320;SDS011;41184;44.272;19.890;2022-07-29T01:32:54;7.72;;;6.95;;
55320;SDS011;41184;44.272;19.890;2022-07-29T01:35:26;6.70;;;6.03;;
55320;SDS011;41184;44.272;19.890;2022-07-29T01:40:31;7.90;;;6.80;;
55320;SDS011;41184;44.272;19.890;2022-07-29T01:43:00;7.38;;;6.40;;
55320;SDS011;41184;44.272;19.890;2022-07-29T01:45:48;8.13;;;6.40;;
55320;SDS011;41184;44.272;19.890;2022-07-29T01:48:20;7.40;;;6.25;;
55320;SDS011;41184;44.272;19.890;2022-07-29T01:50:48;8.10;;;6.90;;
55320;SDS011;41184;44.272;19.890;2022-07-29T01:53:16;7.97;;;6.28;;
55320;SDS011;41184;44.272;19.890;2022-07-29T01:55:47;9.55;;;6.93;;
55320;SDS011;41184;44.272;19.890;2022-07-29T01:58:14;9.45;;;6.90;;
55320;SDS011;41184;44.272;19.890;2022-07-29T02:00:43;7.50;;;6.50;;
55320;SDS011;41184;44.272;19.890;2022-07-29T02:03:11;7.82;;;6.43;;
55320;SDS011;41184;44.272;19.890;2022-07-29T02:05:38;7.45;;;6.22;;
55320;SDS011;41184;44.272;19.890;2022-07-29T02:08:05;7.45;;;6.53;;
55320;SDS011;41184;44.272;19.890;2022-07-29T02:10:32;7.80;;;6.78;;
55320;SDS011;41184;44.272;19.890;2022-07-29T02:12:59;8.57;;;6.78;;
55320;SDS011;41184;44.272;19.890;2022-07-29T02:15:27;9.18;;;6.85;;
55320;SDS011;41184;44.272;19.890;2022-07-29T02:17:55;8.18;;;6.32;;
55320;SDS011;41184;44.272;19.890;2022-07-29T02:20:22;9.02;;;6.85;;
55320;SDS011;41184;44.272;19.890;2022-07-29T02:22:48;8.90;;;6.90;;
55320;SDS011;41184;44.272;19.890;2022-07-29T02:25:15;7.50;;;6.72;;
55320;SDS011;41184;44.272;19.890;2022-07-29T02:27:42;7.75;;;6.18;;
55320;SDS011;41184;44.272;19.890;2022-07-29T02:30:08;8.43;;;6.35;;
55320;SDS011;41184;44.272;19.890;2022-07-29T02:32:35;10.70;;;6.90;;
55320;SDS011;41184;44.272;19.890;2022-07-29T02:35:02;7.32;;;6.55;;
55320;SDS011;41184;44.272;19.890;2022-07-29T02:37:29;8.90;;;6.53;;
55320;SDS011;41184;44.272;19.890;2022-07-29T02:39:56;10.27;;;6.90;;
55320;SDS011;41184;44.272;19.890;2022-07-29T02:42:23;7.82;;;6.47;;
55320;SDS011;41184;44.272;19.890;2022-07-29T02:44:50;7.25;;;6.55;;
55320;SDS011;41184;44.272;19.890;2022-07-29T02:47:17;7.38;;;6.68;;
55320;SDS011;41184;44.272;19.890;2022-07-29T02:49:48;11.70;;;7.13;;
55320;SDS011;41184;44.272;19.890;2022-07-29T02:52:20;8.82;;;7.05;;
55320;SDS011;41184;44.272;19.890;2022-07-29T02:54:51;9.90;;;6.28;;
55320;SDS011;41184;44.272;19.890;2022-07-29T02:57:28;8.65;;;6.90;;
55320;SDS011;41184;44.272;19.890;2022-07-29T02:59:57;7.93;;;6.55;;
55320;SDS011;41184;44.272;19.890;2022-07-29T03:02:23;6.95;;;6.25;;
55320;SDS011;41184;44.272;19.890;2022-07-29T03:04:51;8.25;;;7.28;;
55320;SDS011;41184;44.272;19.890;2022-07-29T03:07:18;7.47;;;6.50;;
55320;SDS011;41184;44.272;19.890;2022-07-29T03:09:46;10.45;;;6.57;;
55320;SDS011;41184;44.272;19.890;2022-07-29T03:12:12;8.32;;;7.00;;
55320;SDS011;41184;44.272;19.890;2022-07-29T03:14:39;9.05;;;6.78;;
55320;SDS011;41184;44.272;19.890;2022-07-29T03:17:05;8.48;;;6.85;;
55320;SDS011;41184;44.272;19.890;2022-07-29T03:19:32;8.88;;;7.20;;
55320;SDS011;41184;44.272;19.890;2022-07-29T03:21:59;9.52;;;7.57;;
55320;SDS011;41184;44.272;19.890;2022-07-29T03:24:26;9.32;;;6.60;;
55320;SDS011;41184;44.272;19.890;2022-07-29T03:26:52;12.73;;;7.00;;
55320;SDS011;41184;44.272;19.890;2022-07-29T03:29:20;10.60;;;7.30;;
55320;SDS011;41184;44.272;19.890;2022-07-29T03:31:46;8.65;;;7.07;;
55320;SDS011;41184;44.272;19.890;2022-07-29T03:34:12;8.82;;;6.88;;
55320;SDS011;41184;44.272;19.890;2022-07-29T03:36:38;9.20;;;6.80;;
55320;SDS011;41184;44.272;19.890;2022-07-29T03:39:04;10.52;;;7.07;;
55320;SDS011;41184;44.272;19.890;2022-07-29T03:41:31;13.10;;;6.70;;
55320;SDS011;41184;44.272;19.890;2022-07-29T03:43:58;7.35;;;6.63;;
55320;SDS011;41184;44.272;19.890;2022-07-29T03:46:24;6.93;;;6.25;;
55320;SDS011;41184;44.272;19.890;2022-07-29T03:48:52;7.00;;;6.30;;
55320;SDS011;41184;44.272;19.890;2022-07-29T03:51:21;8.40;;;6.40;;
55320;SDS011;41184;44.272;19.890;2022-07-29T03:53:47;9.38;;;7.13;;
55320;SDS011;41184;44.272;19.890;2022-07-29T03:56:15;7.32;;;6.63;;
55320;SDS011;41184;44.272;19.890;2022-07-29T03:58:41;9.38;;;7.22;;
55320;SDS011;41184;44.272;19.890;2022-07-29T04:01:07;8.38;;;6.63;;
55320;SDS011;41184;44.272;19.890;2022-07-29T04:03:34;10.45;;;7.10;;
55320;SDS011;41184;44.272;19.890;2022-07-29T04:06:04;11.65;;;6.65;;
55320;SDS011;41184;44.272;19.890;2022-07-29T04:08:31;7.83;;;6.50;;
55320;SDS011;41184;44.272;19.890;2022-07-29T04:10:57;9.30;;;7.10;;
55320;SDS011;41184;44.272;19.890;2022-07-29T04:13:24;8.38;;;7.03;;
55320;SDS011;41184;44.272;19.890;2022-07-29T04:15:50;11.55;;;7.55;;
55320;SDS011;41184;44.272;19.890;2022-07-29T04:18:16;8.68;;;6.53;;
55320;SDS011;41184;44.272;19.890;2022-07-29T04:20:42;10.82;;;7.22;;
55320;SDS011;41184;44.272;19.890;2022-07-29T04:23:08;11.43;;;7.10;;
55320;SDS011;41184;44.272;19.890;2022-07-29T04:25:37;9.35;;;7.00;;
55320;SDS011;41184;44.272;19.890;2022-07-29T04:28:04;9.05;;;6.78;;
55320;SDS011;41184;44.272;19.890;2022-07-29T04:30:30;9.57;;;7.05;;
55320;SDS011;41184;44.272;19.890;2022-07-29T04:32:57;10.30;;;7.63;;
55320;SDS011;41184;44.272;19.890;2022-07-29T04:35:23;9.23;;;7.32;;
55320;SDS011;41184;44.272;19.890;2022-07-29T04:37:49;18.83;;;15.73;;
55320;SDS011;41184;44.272;19.890;2022-07-29T04:40:15;29.02;;;25.52;;
55320;SDS011;41184;44.272;19.890;2022-07-29T04:42:41;27.98;;;19.60;;
55320;SDS011;41184;44.272;19.890;2022-07-29T04:45:07;25.17;;;20.42;;
55320;SDS011;41184;44.272;19.890;2022-07-29T04:47:33;13.30;;;9.73;;
55320;SDS011;41184;44.272;19.890;2022-07-29T04:50:00;11.48;;;8.82;;
55320;SDS011;41184;44.272;19.890;2022-07-29T04:52:26;9.68;;;8.65;;
55320;SDS011;41184;44.272;19.890;2022-07-29T04:54:52;10.50;;;8.38;;
55320;SDS011;41184;44.272;19.890;2022-07-29T04:57:18;10.57;;;8.18;;
55320;SDS011;41184;44.272;19.890;2022-07-29T04:59:44;10.32;;;7.80;;
55320;SDS011;41184;44.272;19.890;2022-07-29T05:02:10;10.68;;;8.15;;
55320;SDS011;41184;44.272;19.890;2022-07-29T05:04:36;13.30;;;8.10;;
55320;SDS011;41184;44.272;19.890;2022-07-29T05:07:02;11.95;;;8.05;;
55320;SDS011;41184;44.272;19.890;2022-07-29T05:09:28;16.65;;;8.68;;
55320;SDS011;41184;44.272;19.890;2022-07-29T05:11:55;11.82;;;7.93;;
55320;SDS011;41184;44.272;19.890;2022-07-29T05:14:27;8.35;;;7.43;;
55320;SDS011;41184;44.272;19.890;2022-07-29T05:16:59;10.93;;;8.27;;
55320;SDS011;41184;44.272;19.890;2022-07-29T05:19:25;9.90;;;7.75;;
55320;SDS011;41184;44.272;19.890;2022-07-29T05:21:51;11.52;;;7.90;;
55320;SDS011;41184;44.272;19.890;2022-07-29T05:24:17;10.00;;;7.50;;
55320;SDS011;41184;44.272;19.890;2022-07-29T05:26:43;12.23;;;8.07;;
55320;SDS011;41184;44.272;19.890;2022-07-29T05:29:09;10.52;;;7.60;;
55320;SDS011;41184;44.272;19.890;2022-07-29T05:31:36;8.50;;;7.10;;
55320;SDS011;41184;44.272;19.890;2022-07-29T05:34:02;11.43;;;8.13;;
55320;SDS011;41184;44.272;19.890;2022-07-29T05:36:28;8.57;;;7.65;;
55320;SDS011;41184;44.272;19.890;2022-07-29T05:38:54;10.85;;;8.07;;
55320;SDS011;41184;44.272;19.890;2022-07-29T05:41:20;10.40;;;7.25;;
55320;SDS011;41184;44.272;19.890;2022-07-29T05:43:46;9.45;;;7.35;;
55320;SDS011;41184;44.272;19.890;2022-07-29T05:46:12;8.95;;;8.05;;
55320;SDS011;41184;44.272;19.890;2022-07-29T05:48:39;8.70;;;7.03;;
55320;SDS011;41184;44.272;19.890;2022-07-29T05:51:05;10.23;;;8.25;;
55320;SDS011;41184;44.272;19.890;2022-07-29T05:53:31;13.50;;;9.07;;
55320;SDS011;41184;44.272;19.890;2022-07-29T05:55:57;10.20;;;7.55;;
55320;SDS011;41184;44.272;19.890;2022-07-29T05:58:23;11.27;;;8.07;;
55320;SDS011;41184;44.272;19.890;2022-07-29T06:00:49;11.98;;;9.05;;
55320;SDS011;41184;44.272;19.890;2022-07-29T06:03:15;11.38;;;9.45;;
55320;SDS011;41184;44.272;19.890;2022-07-29T06:05:41;9.80;;;8.10;;
55320;SDS011;41184;44.272;19.890;2022-07-29T06:08:07;13.18;;;8.95;;
55320;SDS011;41184;44.272;19.890;2022-07-29T06:10:37;16.63;;;9.75;;
55320;SDS011;41184;44.272;19.890;2022-07-29T06:13:03;14.88;;;8.60;;
55320;SDS011;41184;44.272;19.890;2022-07-29T06:15:29;11.82;;;8.32;;
55320;SDS011;41184;44.272;19.890;2022-07-29T06:17:55;11.68;;;8.60;;
55320;SDS011;41184;44.272;19.890;2022-07-29T06:20:22;10.15;;;7.38;;
55320;SDS011;41184;44.272;19.890;2022-07-29T06:22:48;12.73;;;8.00;;
55320;SDS011;41184;44.272;19.890;2022-07-29T06:25:14;11.70;;;8.35;;
55320;SDS011;41184;44.272;19.890;2022-07-29T06:27:41;14.30;;;8.43;;
55320;SDS011;41184;44.272;19.890;2022-07-29T06:30:07;12.02;;;8.00;;
55320;SDS011;41184;44.272;19.890;2022-07-29T06:32:33;20.30;;;8.45;;
55320;SDS011;41184;44.272;19.890;2022-07-29T06:34:59;14.43;;;7.47;;
55320;SDS011;41184;44.272;19.890;2022-07-29T06:37:25;12.93;;;7.95;;
55320;SDS011;41184;44.272;19.890;2022-07-29T06:39:52;12.32;;;8.10;;
55320;SDS011;41184;44.272;19.890;2022-07-29T06:42:41;10.10;;;7.80;;
55320;SDS011;41184;44.272;19.890;2022-07-29T06:45:07;11.43;;;7.55;;
55320;SDS011;41184;44.272;19.890;2022-07-29T06:47:34;12.35;;;8.88;;
55320;SDS011;41184;44.272;19.890;2022-07-29T06:50:00;10.38;;;8.20;;
55320;SDS011;41184;44.272;19.890;2022-07-29T06:52:26;11.45;;;7.28;;
55320;SDS011;41184;44.272;19.890;2022-07-29T06:54:52;9.35;;;7.60;;
55320;SDS011;41184;44.272;19.890;2022-07-29T06:57:19;9.45;;;7.70;;
55320;SDS011;41184;44.272;19.890;2022-07-29T06:59:46;14.38;;;7.95;;
55320;SDS011;41184;44.272;19.890;2022-07-29T07:02:12;9.75;;;7.97;;
55320;SDS011;41184;44.272;19.890;2022-07-29T07:04:38;9.48;;;6.65;;
55320;SDS011;41184;44.272;19.890;2022-07-29T07:07:04;11.57;;;7.85;;
55320;SDS011;41184;44.272;19.890;2022-07-29T07:09:30;9.70;;;7.03;;
55320;SDS011;41184;44.272;19.890;2022-07-29T07:11:57;10.13;;;7.60;;
55320;SDS011;41184;44.272;19.890;2022-07-29T07:14:23;10.30;;;7.15;;
55320;SDS011;41184;44.272;19.890;2022-07-29T07:16:51;10.38;;;6.80;;
55320;SDS011;41184;44.272;19.890;2022-07-29T07:19:17;11.15;;;6.75;;
55320;SDS011;41184;44.272;19.890;2022-07-29T07:21:44;9.70;;;6.90;;
55320;SDS011;41184;44.272;19.890;2022-07-29T07:24:10;11.57;;;7.55;;
55320;SDS011;41184;44.272;19.890;2022-07-29T07:26:36;8.10;;;6.63;;
55320;SDS011;41184;44.272;19.890;2022-07-29T07:29:04;11.32;;;8.00;;
55320;SDS011;41184;44.272;19.890;2022-07-29T07:31:30;9.15;;;7.00;;
55320;SDS011;41184;44.272;19.890;2022-07-29T07:33:56;10.02;;;7.22;;
55320;SDS011;41184;44.272;19.890;2022-07-29T07:36:23;8.00;;;6.63;;
55320;SDS011;41184;44.272;19.890;2022-07-29T07:38:49;10.30;;;6.50;;
55320;SDS011;41184;44.272;19.890;2022-07-29T07:41:15;12.23;;;6.80;;
55320;SDS011;41184;44.272;19.890;2022-07-29T07:43:41;10.50;;;7.65;;
55320;SDS011;41184;44.272;19.890;2022-07-29T07:46:07;7.63;;;6.57;;
55320;SDS011;41184;44.272;19.890;2022-07-29T07:48:33;13.88;;;8.15;;
55320;SDS011;41184;44.272;19.890;2022-07-29T07:51:00;9.00;;;7.00;;
55320;SDS011;41184;44.272;19.890;2022-07-29T07:53:26;9.45;;;7.55;;
55320;SDS011;41184;44.272;19.890;2022-07-29T07:55:54;13.48;;;8.63;;
55320;SDS011;41184;44.272;19.890;2022-07-29T07:58:20;9.48;;;6.50;;
55320;SDS011;41184;44.272;19.890;2022-07-29T08:00:47;7.63;;;6.40;;
55320;SDS011;41184;44.272;19.890;2022-07-29T08:03:13;10.40;;;7.82;;
55320;SDS011;41184;44.272;19.890;2022-07-29T08:05:39;9.35;;;6.65;;
55320;SDS011;41184;44.272;19.890;2022-07-29T08:08:05;11.98;;;6.93;;
55320;SDS011;41184;44.272;19.890;2022-07-29T08:10:32;8.25;;;7.05;;
55320;SDS011;41184;44.272;19.890;2022-07-29T08:13:17;7.53;;;5.97;;
55320;SDS011;41184;44.272;19.890;2022-07-29T08:15:43;8.13;;;7.15;;
55320;SDS011;41184;44.272;19.890;2022-07-29T08:18:10;9.95;;;7.10;;
55320;SDS011;41184;44.272;19.890;2022-07-29T08:20:37;8.05;;;5.95;;
55320;SDS011;41184;44.272;19.890;2022-07-29T08:23:04;8.23;;;6.53;;
55320;SDS011;41184;44.272;19.890;2022-07-29T08:25:40;11.63;;;6.95;;
55320;SDS011;41184;44.272;19.890;2022-07-29T08:28:07;8.20;;;6.75;;
55320;SDS011;41184;44.272;19.890;2022-07-29T08:30:33;7.72;;;6.93;;
55320;SDS011;41184;44.272;19.890;2022-07-29T08:33:00;11.40;;;7.00;;
55320;SDS011;41184;44.272;19.890;2022-07-29T08:35:26;9.82;;;7.30;;
55320;SDS011;41184;44.272;19.890;2022-07-29T08:37:52;8.93;;;6.93;;
55320;SDS011;41184;44.272;19.890;2022-07-29T08:40:19;9.70;;;6.30;;
55320;SDS011;41184;44.272;19.890;2022-07-29T08:42:45;11.35;;;8.00;;
55320;SDS011;41184;44.272;19.890;2022-07-29T08:45:12;10.18;;;7.47;;
55320;SDS011;41184;44.272;19.890;2022-07-29T08:47:38;10.88;;;5.90;;
55320;SDS011;41184;44.272;19.890;2022-07-29T08:50:05;8.50;;;6.32;;
55320;SDS011;41184;44.272;19.890;2022-07-29T08:52:32;8.25;;;6.68;;
55320;SDS011;41184;44.272;19.890;2022-07-29T08:55:01;12.05;;;8.20;;
55320;SDS011;41184;44.272;19.890;2022-07-29T08:57:27;8.43;;;5.78;;
55320;SDS011;41184;44.272;19.890;2022-07-29T08:59:53;7.05;;;6.35;;
55320;SDS011;41184;44.272;19.890;2022-07-29T09:02:20;7.05;;;6.22;;
55320;SDS011;41184;44.272;19.890;2022-07-29T09:04:47;8.60;;;6.38;;
55320;SDS011;41184;44.272;19.890;2022-07-29T09:07:17;8.50;;;6.68;;
55320;SDS011;41184;44.272;19.890;2022-07-29T09:09:43;7.87;;;6.73;;
55320;SDS011;41184;44.272;19.890;2022-07-29T09:12:10;10.70;;;6.63;;
55320;SDS011;41184;44.272;19.890;2022-07-29T09:14:39;8.15;;;6.68;;
55320;SDS011;41184;44.272;19.890;2022-07-29T09:17:05;11.73;;;7.70;;
55320;SDS011;41184;44.272;19.890;2022-07-29T09:19:35;11.10;;;7.78;;
55320;SDS011;41184;44.272;19.890;2022-07-29T09:22:03;8.03;;;7.07;;
55320;SDS011;41184;44.272;19.890;2022-07-29T09:26:59;7.80;;;6.82;;
55320;SDS011;41184;44.272;19.890;2022-07-29T09:29:26;10.60;;;7.80;;
55320;SDS011;41184;44.272;19.890;2022-07-29T09:31:53;10.00;;;7.05;;
55320;SDS011;41184;44.272;19.890;2022-07-29T09:34:26;9.18;;;7.22;;
55320;SDS011;41184;44.272;19.890;2022-07-29T09:36:54;8.88;;;7.05;;
55320;SDS011;41184;44.272;19.890;2022-07-29T09:39:27;9.45;;;6.85;;
55320;SDS011;41184;44.272;19.890;2022-07-29T09:41:56;7.35;;;6.63;;
55320;SDS011;41184;44.272;19.890;2022-07-29T09:44:23;7.47;;;6.40;;
55320;SDS011;41184;44.272;19.890;2022-07-29T09:46:59;8.88;;;6.45;;
55320;SDS011;41184;44.272;19.890;2022-07-29T09:49:35;8.23;;;6.68;;
55320;SDS011;41184;44.272;19.890;2022-07-29T09:52:05;9.13;;;6.72;;
55320;SDS011;41184;44.272;19.890;2022-07-29T09:54:31;8.90;;;8.10;;
55320;SDS011;41184;44.272;19.890;2022-07-29T09:57:08;8.32;;;7.53;;
55320;SDS011;41184;44.272;19.890;2022-07-29T09:59:38;8.27;;;7.30;;
55320;SDS011;41184;44.272;19.890;2022-07-29T10:02:11;8.10;;;7.13;;
55320;SDS011;41184;44.272;19.890;2022-07-29T10:04:41;8.30;;;7.50;;
55320;SDS011;41184;44.272;19.890;2022-07-29T10:07:07;8.63;;;7.05;;
55320;SDS011;41184;44.272;19.890;2022-07-29T10:09:33;9.55;;;8.35;;
55320;SDS011;41184;44.272;19.890;2022-07-29T10:12:09;8.35;;;7.55;;
55320;SDS011;41184;44.272;19.890;2022-07-29T10:14:38;9.05;;;7.10;;
55320;SDS011;41184;44.272;19.890;2022-07-29T10:19:40;8.30;;;7.50;;
55320;SDS011;41184;44.272;19.890;2022-07-29T10:22:08;7.93;;;6.65;;
55320;SDS011;41184;44.272;19.890;2022-07-29T10:24:34;8.32;;;6.63;;
55320;SDS011;41184;44.272;19.890;2022-07-29T10:27:02;9.10;;;7.30;;
55320;SDS011;41184;44.272;19.890;2022-07-29T10:29:29;9.55;;;7.20;;
55320;SDS011;41184;44.272;19.890;2022-07-29T10:39:50;8.23;;;7.22;;
55320;SDS011;41184;44.272;19.890;2022-07-29T10:42:19;9.05;;;7.43;;
55320;SDS011;41184;44.272;19.890;2022-07-29T10:44:48;8.35;;;7.03;;
55320;SDS011;41184;44.272;19.890;2022-07-29T10:47:24;8.73;;;7.93;;
55320;SDS011;41184;44.272;19.890;2022-07-29T10:49:57;8.75;;;7.85;;
55320;SDS011;41184;44.272;19.890;2022-07-29T10:52:23;13.15;;;9.77;;
55320;SDS011;41184;44.272;19.890;2022-07-29T10:54:52;10.07;;;8.07;;
55320;SDS011;41184;44.272;19.890;2022-07-29T10:57:28;8.80;;;7.75;;
55320;SDS011;41184;44.272;19.890;2022-07-29T11:07:26;10.02;;;7.65;;
55320;SDS011;41184;44.272;19.890;2022-07-29T11:15:06;8.15;;;7.45;;
55320;SDS011;41184;44.272;19.890;2022-07-29T11:28:39;8.60;;;7.70;;
55320;SDS011;41184;44.272;19.890;2022-07-29T11:31:13;9.05;;;7.78;;
55320;SDS011;41184;44.272;19.890;2022-07-29T11:33:39;8.50;;;7.70;;
55320;SDS011;41184;44.272;19.890;2022-07-29T11:36:09;8.48;;;7.68;;
55320;SDS011;41184;44.272;19.890;2022-07-29T11:38:36;7.97;;;7.18;;
55320;SDS011;41184;44.272;19.890;2022-07-29T11:46:12;8.57;;;7.78;;
55320;SDS011;41184;44.272;19.890;2022-07-29T11:48:41;10.00;;;9.10;;
55320;SDS011;41184;44.272;19.890;2022-07-29T11:51:11;8.57;;;7.65;;
55320;SDS011;41184;44.272;19.890;2022-07-29T11:53:38;9.13;;;8.23;;
55320;SDS011;41184;44.272;19.890;2022-07-29T11:56:07;10.48;;;8.55;;
55320;SDS011;41184;44.272;19.890;2022-07-29T11:58:34;9.82;;;8.82;;
55320;SDS011;41184;44.272;19.890;2022-07-29T12:01:00;9.65;;;8.50;;
55320;SDS011;41184;44.272;19.890;2022-07-29T12:03:27;8.73;;;7.95;;
55320;SDS011;41184;44.272;19.890;2022-07-29T12:05:54;11.73;;;10.52;;
55320;SDS011;41184;44.272;19.890;2022-07-29T12:08:21;8.95;;;8.05;;
55320;SDS011;41184;44.272;19.890;2022-07-29T12:10:48;9.65;;;8.65;;
55320;SDS011;41184;44.272;19.890;2022-07-29T12:13:15;9.07;;;8.18;;
55320;SDS011;41184;44.272;19.890;2022-07-29T12:15:41;8.52;;;7.82;;
55320;SDS011;41184;44.272;19.890;2022-07-29T12:18:16;9.98;;;7.97;;
55320;SDS011;41184;44.272;19.890;2022-07-29T12:20:43;9.13;;;7.85;;
55320;SDS011;41184;44.272;19.890;2022-07-29T12:23:10;9.30;;;8.40;;
55320;SDS011;41184;44.272;19.890;2022-07-29T12:25:37;9.32;;;8.43;;
55320;SDS011;41184;44.272;19.890;2022-07-29T12:28:04;11.27;;;9.13;;
55320;SDS011;41184;44.272;19.890;2022-07-29T12:30:35;8.73;;;7.95;;
55320;SDS011;41184;44.272;19.890;2022-07-29T12:33:09;9.55;;;8.50;;
55320;SDS011;41184;44.272;19.890;2022-07-29T12:35:35;8.90;;;8.05;;
55320;SDS011;41184;44.272;19.890;2022-07-29T12:38:02;9.02;;;8.20;;
55320;SDS011;41184;44.272;19.890;2022-07-29T12:40:28;8.90;;;8.00;;
55320;SDS011;41184;44.272;19.890;2022-07-29T12:43:11;9.15;;;8.05;;
55320;SDS011;41184;44.272;19.890;2022-07-29T12:45:38;8.93;;;8.02;;
55320;SDS011;41184;44.272;19.890;2022-07-29T12:48:04;8.05;;;7.35;;
55320;SDS011;41184;44.272;19.890;2022-07-29T12:50:31;8.80;;;8.00;;
55320;SDS011;41184;44.272;19.890;2022-07-29T12:53:11;9.88;;;8.68;;
55320;SDS011;41184;44.272;19.890;2022-07-29T12:58:06;9.48;;;8.57;;
55320;SDS011;41184;44.272;19.890;2022-07-29T13:00:32;8.95;;;8.10;;
55320;SDS011;41184;44.272;19.890;2022-07-29T13:02:59;9.45;;;8.55;;
55320;SDS011;41184;44.272;19.890;2022-07-29T13:05:41;9.60;;;8.60;;
55320;SDS011;41184;44.272;19.890;2022-07-29T13:08:14;11.90;;;9.73;;
55320;SDS011;41184;44.272;19.890;2022-07-29T13:10:41;9.32;;;8.45;;
55320;SDS011;41184;44.272;19.890;2022-07-29T13:13:08;9.18;;;8.30;;
55320;SDS011;41184;44.272;19.890;2022-07-29T13:15:38;10.20;;;8.32;;
55320;SDS011;41184;44.272;19.890;2022-07-29T13:18:06;9.02;;;8.15;;
55320;SDS011;41184;44.272;19.890;2022-07-29T13:20:50;9.77;;;8.82;;
55320;SDS011;41184;44.272;19.890;2022-07-29T13:23:16;9.23;;;7.78;;
55320;SDS011;41184;44.272;19.890;2022-07-29T13:25:42;9.77;;;8.40;;
55320;SDS011;41184;44.272;19.890;2022-07-29T13:28:08;9.50;;;8.32;;
55320;SDS011;41184;44.272;19.890;2022-07-29T13:30:36;9.95;;;8.77;;
55320;SDS011;41184;44.272;19.890;2022-07-29T13:33:02;9.10;;;8.30;;
55320;SDS011;41184;44.272;19.890;2022-07-29T13:35:28;11.98;;;8.68;;
55320;SDS011;41184;44.272;19.890;2022-07-29T13:37:54;8.75;;;7.95;;
55320;SDS011;41184;44.272;19.890;2022-07-29T13:40:21;9.70;;;8.80;;
55320;SDS011;41184;44.272;19.890;2022-07-29T13:42:47;9.40;;;8.50;;
55320;SDS011;41184;44.272;19.890;2022-07-29T13:45:13;9.20;;;8.30;;
55320;SDS011;41184;44.272;19.890;2022-07-29T13:47:39;10.63;;;9.63;;
55320;SDS011;41184;44.272;19.890;2022-07-29T13:50:06;8.82;;;8.02;;
55320;SDS011;41184;44.272;19.890;2022-07-29T13:52:34;11.30;;;10.20;;
55320;SDS011;41184;44.272;19.890;2022-07-29T13:55:01;10.07;;;8.77;;
55320;SDS011;41184;44.272;19.890;2022-07-29T13:57:27;11.07;;;8.73;;
55320;SDS011;41184;44.272;19.890;2022-07-29T13:59:54;10.02;;;9.10;;
55320;SDS011;41184;44.272;19.890;2022-07-29T14:02:20;15.38;;;10.00;;
55320;SDS011;41184;44.272;19.890;2022-07-29T14:04:46;13.93;;;9.70;;
55320;SDS011;41184;44.272;19.890;2022-07-29T14:07:12;14.15;;;9.13;;
55320;SDS011;41184;44.272;19.890;2022-07-29T14:09:38;10.13;;;8.90;;
55320;SDS011;41184;44.272;19.890;2022-07-29T14:12:05;9.80;;;8.90;;
55320;SDS011;41184;44.272;19.890;2022-07-29T14:14:31;15.55;;;10.02;;
55320;SDS011;41184;44.272;19.890;2022-07-29T14:16:57;11.63;;;10.43;;
55320;SDS011;41184;44.272;19.890;2022-07-29T14:19:23;11.50;;;10.45;;
55320;SDS011;41184;44.272;19.890;2022-07-29T14:21:49;11.93;;;10.63;;
55320;SDS011;41184;44.272;19.890;2022-07-29T14:24:15;11.98;;;10.00;;
55320;SDS011;41184;44.272;19.890;2022-07-29T14:26:41;10.45;;;9.38;;
55320;SDS011;41184;44.272;19.890;2022-07-29T14:29:07;10.70;;;9.70;;
55320;SDS011;41184;44.272;19.890;2022-07-29T14:31:33;10.23;;;9.32;;
55320;SDS011;41184;44.272;19.890;2022-07-29T14:34:00;11.20;;;9.20;;
55320;SDS011;41184;44.272;19.890;2022-07-29T14:36:26;10.13;;;9.20;;
55320;SDS011;41184;44.272;19.890;2022-07-29T14:38:52;11.70;;;9.85;;
55320;SDS011;41184;44.272;19.890;2022-07-29T14:41:18;10.35;;;9.45;;
55320;SDS011;41184;44.272;19.890;2022-07-29T14:43:46;11.02;;;10.02;;
55320;SDS011;41184;44.272;19.890;2022-07-29T14:46:12;10.02;;;9.02;;
55320;SDS011;41184;44.272;19.890;2022-07-29T14:48:38;11.55;;;10.35;;
55320;SDS011;41184;44.272;19.890;2022-07-29T14:51:04;12.02;;;9.70;;
55320;SDS011;41184;44.272;19.890;2022-07-29T14:53:31;10.73;;;9.73;;
55320;SDS011;41184;44.272;19.890;2022-07-29T14:55:57;11.02;;;9.93;;
55320;SDS011;41184;44.272;19.890;2022-07-29T14:58:23;10.77;;;9.77;;
55320;SDS011;41184;44.272;19.890;2022-07-29T15:00:49;10.60;;;9.60;;
55320;SDS011;41184;44.272;19.890;2022-07-29T15:03:16;11.02;;;10.13;;
55320;SDS011;41184;44.272;19.890;2022-07-29T15:05:42;10.45;;;9.38;;
55320;SDS011;41184;44.272;19.890;2022-07-29T15:08:08;12.18;;;9.63;;
55320;SDS011;41184;44.272;19.890;2022-07-29T15:10:34;9.95;;;9.05;;
55320;SDS011;41184;44.272;19.890;2022-07-29T15:13:00;10.48;;;9.55;;
55320;SDS011;41184;44.272;19.890;2022-07-29T15:15:26;10.98;;;9.93;;
55320;SDS011;41184;44.272;19.890;2022-07-29T15:17:52;10.60;;;9.60;;
55320;SDS011;41184;44.272;19.890;2022-07-29T15:20:18;11.20;;;10.05;;
55320;SDS011;41184;44.272;19.890;2022-07-29T15:22:46;9.60;;;8.80;;